KSQL/SQL METAR and TAF weather

Enter ICAO airport designator
Station Type Date Time Source
KSQL METAR 2021/03/01 21:49 UTC NOAA

KSQL 012149Z 35010KT 10SM SKC 18/00 A3008


Station Type Date Time Source
KSQL Decoded METAR 2021/03/01 21:49 UTC NOAA

San Carlos Airport, CA, United States (KSQL) 37-31N 122-15W
Mar 01, 2021 - 04:49 PM EST / 2021.03.01 2149 UTC
Wind: from the N (350 degrees) at 12 MPH (10 KT):0
Visibility: 10 mile(s):0
Sky conditions: clear
Temperature: 64 F (18 C)
Dew Point: 32 F (0 C)
Relative Humidity: 29%
Pressure (altimeter): 30.08 in. Hg (1018 hPa)
ob: KSQL 012149Z 35010KT 10SM SKC 18/00 A3008
cycle: 22

Station Type Date Time Source
KSQL TAF UTC NOAA

Error!

Example: see airport list